Time;durP1;ratioP1;P1;durP2;ratioP2;P2;SDS_P1;SDS_P2;PMS_P1;PMS_P2;Temp;Humidity;BMP_temperature;BMP_pressure;BME280_temperature;BME280_humidity;BME280_pressure;Samples;Min_cycle;Max_cycle;Signal;HPM_P1;HPM_P2
2023/07/19 00:02:24;;;;;;;0.10;0.10;;;17.70;99.90;;;;;;5085323;28;20460;-87
2023/07/19 00:04:50;;;;;;;0.20;0.20;;;17.60;99.90;;;;;;5089736;28;20506;-87
2023/07/19 00:07:16;;;;;;;0.20;0.20;;;17.60;99.90;;;;;;5085536;28;20036;-87
2023/07/19 00:09:41;;;;;;;0.20;0.20;;;17.60;99.90;;;;;;5106044;27;20051;-87
2023/07/19 00:12:07;;;;;;;0.20;0.20;;;17.60;99.90;;;;;;5090414;28;20623;-87
2023/07/19 00:14:33;;;;;;;0.20;0.20;;;17.60;99.90;;;;;;5087881;28;20530;-88
2023/07/19 00:16:59;;;;;;;0.10;0.10;;;17.60;99.90;;;;;;5089431;28;20128;-86
2023/07/19 00:19:24;;;;;;;0.10;0.10;;;17.60;99.90;;;;;;5088957;28;20127;-87
2023/07/19 00:21:50;;;;;;;0.20;0.20;;;17.50;99.90;;;;;;5088898;28;20048;-87
2023/07/19 00:24:16;;;;;;;0.10;0.10;;;17.50;99.90;;;;;;5089853;28;20499;-87
2023/07/19 00:26:42;;;;;;;0.20;0.20;;;17.50;99.90;;;;;;5084430;28;20051;-88
2023/07/19 00:29:08;;;;;;;0.20;0.20;;;17.50;99.90;;;;;;5087734;28;20480;-86
2023/07/19 00:31:33;;;;;;;0.20;0.20;;;17.50;99.90;;;;;;5088412;28;20042;-87
2023/07/19 00:33:59;;;;;;;0.20;0.20;;;17.50;99.90;;;;;;5090352;28;20484;-87
2023/07/19 00:36:25;;;;;;;0.10;0.10;;;17.50;99.90;;;;;;5084440;28;20051;-86
2023/07/19 00:38:50;;;;;;;0.20;0.20;;;17.50;99.90;;;;;;5082746;28;20069;-87
2023/07/19 00:41:18;;;;;;;0.20;0.20;;;17.50;99.90;;;;;;5089401;28;20044;-87
2023/07/19 00:43:44;;;;;;;0.10;0.10;;;17.50;99.90;;;;;;5092711;28;20044;-87
2023/07/19 00:46:10;;;;;;;0.20;0.20;;;17.50;99.90;;;;;;5090143;28;20067;-86
2023/07/19 00:48:36;;;;;;;0.20;0.20;;;17.40;99.90;;;;;;5086524;28;20403;-86
2023/07/19 00:51:02;;;;;;;0.10;0.10;;;17.40;99.90;;;;;;5085360;28;20096;-86
2023/07/19 00:53:28;;;;;;;0.15;0.15;;;17.40;99.90;;;;;;5088905;28;20123;-86
2023/07/19 00:55:54;;;;;;;0.20;0.20;;;17.40;99.90;;;;;;5090811;28;20075;-86
2023/07/19 00:58:23;;;;;;;0.20;0.20;;;17.40;99.90;;;;;;5083432;28;20474;-87
2023/07/19 01:00:50;;;;;;;0.15;0.15;;;17.30;99.90;;;;;;5090055;28;20067;-87
2023/07/19 01:03:16;;;;;;;0.10;0.10;;;17.30;99.90;;;;;;5088115;28;20549;-87
2023/07/19 01:05:43;;;;;;;0.20;0.20;;;17.30;99.90;;;;;;5089185;28;20040;-86
2023/07/19 01:08:09;;;;;;;0.20;0.20;;;17.30;99.90;;;;;;5087931;28;20043;-86
2023/07/19 01:10:34;;;;;;;0.13;0.13;;;17.30;99.90;;;;;;5084963;28;20050;-87
2023/07/19 01:13:04;;;;;;;0.20;0.20;;;17.30;99.90;;;;;;5088125;28;20043;-87
2023/07/19 01:15:30;;;;;;;0.20;0.20;;;17.30;99.90;;;;;;5085544;28;20447;-86
2023/07/19 01:17:55;;;;;;;0.20;0.20;;;17.30;99.90;;;;;;5090667;28;20044;-87
2023/07/19 01:20:21;;;;;;;0.20;0.20;;;17.40;99.90;;;;;;5088955;28;20483;-87
2023/07/19 01:22:47;;;;;;;0.15;0.15;;;17.30;99.90;;;;;;5082314;28;20037;-86
2023/07/19 01:25:13;;;;;;;0.13;0.13;;;17.30;99.90;;;;;;5112602;28;20040;-85
2023/07/19 01:27:39;;;;;;;0.20;0.20;;;17.30;99.90;;;;;;5088476;28;20710;-85
2023/07/19 01:30:06;;;;;;;0.20;0.20;;;17.30;99.90;;;;;;5085897;28;20403;-86
2023/07/19 01:32:32;;;;;;;0.10;0.10;;;17.30;99.90;;;;;;5090729;28;20055;-86
2023/07/19 01:34:57;;;;;;;0.10;0.10;;;17.30;99.90;;;;;;5098280;28;20044;-86
2023/07/19 01:37:23;;;;;;;0.10;0.10;;;17.30;99.90;;;;;;5081489;28;20071;-86
2023/07/19 01:39:49;;;;;;;0.20;0.20;;;17.40;99.90;;;;;;5087085;28;20654;-85
2023/07/19 01:42:16;;;;;;;0.13;0.13;;;17.40;99.90;;;;;;5088558;28;20076;-86
2023/07/19 01:44:42;;;;;;;0.10;0.10;;;17.40;99.90;;;;;;5088064;28;20127;-87
2023/07/19 01:47:08;;;;;;;0.10;0.10;;;17.40;99.90;;;;;;5089154;28;20216;-86
2023/07/19 01:49:34;;;;;;;0.13;0.13;;;17.40;99.90;;;;;;5104701;28;20072;-86
2023/07/19 01:51:59;;;;;;;0.20;0.20;;;17.40;99.90;;;;;;5080520;28;20040;-86
2023/07/19 01:54:25;;;;;;;0.20;0.20;;;17.40;99.90;;;;;;5090033;28;20143;-86
2023/07/19 01:56:51;;;;;;;0.15;0.15;;;17.40;99.90;;;;;;5087378;28;20048;-86
2023/07/19 01:59:16;;;;;;;0.20;0.20;;;17.40;99.90;;;;;;5105114;27;20037;-87
2023/07/19 02:01:43;;;;;;;0.20;0.20;;;17.40;99.90;;;;;;5084029;28;20488;-87
2023/07/19 02:04:08;;;;;;;0.20;0.20;;;17.40;99.90;;;;;;5092211;28;20044;-87
2023/07/19 02:06:34;;;;;;;0.20;0.20;;;17.40;99.90;;;;;;5092855;28;20075;-86
2023/07/19 02:08:59;;;;;;;0.20;0.20;;;17.50;99.90;;;;;;5090856;28;20181;-86
2023/07/19 02:11:25;;;;;;;0.20;0.20;;;17.50;99.90;;;;;;5093549;28;20555;-86
2023/07/19 02:13:51;;;;;;;0.20;0.20;;;17.50;99.90;;;;;;5091505;28;20082;-87
2023/07/19 02:16:16;;;;;;;0.20;0.20;;;17.40;99.90;;;;;;5086151;28;20040;-86
2023/07/19 02:18:42;;;;;;;0.10;0.10;;;17.40;99.90;;;;;;5087636;28;20036;-85
2023/07/19 02:21:08;;;;;;;0.20;0.20;;;17.50;99.90;;;;;;5119399;27;20485;-86
2023/07/19 02:23:34;;;;;;;0.10;0.10;;;17.50;99.90;;;;;;5092064;28;20035;-86
2023/07/19 02:26:00;;;;;;;0.20;0.20;;;17.50;99.90;;;;;;5090720;28;20036;-86
2023/07/19 02:28:25;;;;;;;0.20;0.20;;;17.50;99.90;;;;;;5086610;28;20487;-86
2023/07/19 02:30:51;;;;;;;0.10;0.10;;;17.50;99.90;;;;;;5090841;28;20036;-85
2023/07/19 02:33:17;;;;;;;0.13;0.13;;;17.50;99.90;;;;;;5092808;28;20487;-86
2023/07/19 02:35:43;;;;;;;0.20;0.20;;;17.50;99.90;;;;;;5085889;28;20036;-86
2023/07/19 02:38:09;;;;;;;0.10;0.10;;;17.50;99.90;;;;;;5090137;28;20043;-86
2023/07/19 02:40:36;;;;;;;0.10;0.10;;;17.50;99.90;;;;;;5095021;28;20066;-86
2023/07/19 02:43:01;;;;;;;0.20;0.20;;;17.50;99.90;;;;;;5096121;28;20044;-85
2023/07/19 02:45:27;;;;;;;0.20;0.20;;;17.50;99.90;;;;;;5092334;28;20036;-86
2023/07/19 02:47:53;;;;;;;0.10;0.10;;;17.50;99.90;;;;;;5092288;28;20024;-86
2023/07/19 02:50:19;;;;;;;0.10;0.10;;;17.50;99.90;;;;;;5091858;28;20040;-86
2023/07/19 02:52:45;;;;;;;0.20;0.20;;;17.50;99.90;;;;;;5084667;28;20085;-86
2023/07/19 02:55:11;;;;;;;0.20;0.20;;;17.50;99.90;;;;;;5091010;28;20039;-86
2023/07/19 02:57:37;;;;;;;0.20;0.20;;;17.50;99.90;;;;;;5092190;28;20040;-86
2023/07/19 03:00:04;;;;;;;0.20;0.20;;;17.40;99.90;;;;;;5089367;28;20081;-85
2023/07/19 03:02:30;;;;;;;0.10;0.10;;;17.40;99.90;;;;;;5090728;28;20032;-87
2023/07/19 03:04:56;;;;;;;0.20;0.20;;;17.40;99.90;;;;;;5083071;28;20043;-86
2023/07/19 03:07:23;;;;;;;0.10;0.10;;;17.30;99.90;;;;;;5085308;28;20157;-88
2023/07/19 03:09:49;;;;;;;0.10;0.10;;;17.40;99.90;;;;;;5075854;28;20141;-86
2023/07/19 03:12:15;;;;;;;0.20;0.20;;;17.30;99.90;;;;;;5088391;28;20689;-85
2023/07/19 03:14:41;;;;;;;0.10;0.10;;;17.30;99.90;;;;;;5084398;28;20434;-86
2023/07/19 03:17:06;;;;;;;0.10;0.10;;;17.30;99.90;;;;;;5085178;28;20094;-86
2023/07/19 03:19:33;;;;;;;0.10;0.10;;;17.30;99.90;;;;;;5090277;28;20056;-86
2023/07/19 03:21:58;;;;;;;0.10;0.10;;;17.40;99.90;;;;;;5093875;28;20109;-86
2023/07/19 03:24:24;;;;;;;0.10;0.10;;;17.30;99.90;;;;;;5085794;28;20483;-86
2023/07/19 03:26:50;;;;;;;0.20;0.20;;;17.30;99.90;;;;;;5088916;28;20396;-86
2023/07/19 03:29:15;;;;;;;0.20;0.20;;;17.30;99.90;;;;;;5087344;28;20065;-87
2023/07/19 03:31:41;;;;;;;0.20;0.20;;;17.30;99.90;;;;;;5109849;27;20047;-86
2023/07/19 03:34:07;;;;;;;0.20;0.20;;;17.30;99.90;;;;;;5091919;28;20044;-86
2023/07/19 03:36:32;;;;;;;0.10;0.10;;;17.30;99.90;;;;;;5088387;28;20438;-86
2023/07/19 03:38:58;;;;;;;0.10;0.10;;;17.30;99.90;;;;;;5092680;28;20071;-87
2023/07/19 03:41:24;;;;;;;0.15;0.15;;;17.30;99.90;;;;;;5085052;28;20040;-86
2023/07/19 03:43:50;;;;;;;0.20;0.20;;;17.40;99.90;;;;;;5090463;28;20032;-86
2023/07/19 03:46:16;;;;;;;0.17;0.17;;;17.30;99.90;;;;;;5089753;28;20094;-86
2023/07/19 03:48:41;;;;;;;0.20;0.20;;;17.30;99.90;;;;;;5092871;28;20418;-86
2023/07/19 03:51:07;;;;;;;0.20;0.20;;;17.40;99.90;;;;;;5092160;28;20036;-86
2023/07/19 03:53:33;;;;;;;0.20;0.20;;;17.40;99.90;;;;;;5089951;28;20048;-85
2023/07/19 03:56:00;;;;;;;0.20;0.20;;;17.40;99.90;;;;;;5090639;28;20044;-86
2023/07/19 03:58:26;;;;;;;0.20;0.20;;;17.40;99.90;;;;;;5089929;28;20155;-86
2023/07/19 04:00:53;;;;;;;0.20;0.20;;;17.40;99.90;;;;;;5090924;28;20036;-86
2023/07/19 04:03:20;;;;;;;0.20;0.20;;;17.40;99.90;;;;;;5090822;28;20605;-87
2023/07/19 04:05:45;;;;;;;0.20;0.20;;;17.40;99.90;;;;;;5090938;28;20036;-88
2023/07/19 04:08:13;;;;;;;0.10;0.10;;;17.40;99.90;;;;;;5118740;27;20085;-86
2023/07/19 04:10:39;;;;;;;0.20;0.20;;;17.40;99.90;;;;;;5090659;28;20558;-85
2023/07/19 04:13:04;;;;;;;0.20;0.20;;;17.40;99.90;;;;;;5090469;28;20036;-86
2023/07/19 04:15:30;;;;;;;0.20;0.20;;;17.40;99.90;;;;;;5089551;28;20055;-86
2023/07/19 04:17:59;;;;;;;0.10;0.10;;;17.40;99.90;;;;;;5095038;28;20063;-86
2023/07/19 04:20:26;;;;;;;0.20;0.20;;;17.40;99.90;;;;;;5093117;28;20445;-86
2023/07/19 04:22:52;;;;;;;0.20;0.20;;;17.40;99.90;;;;;;5095650;28;20044;-86
2023/07/19 04:25:18;;;;;;;0.10;0.10;;;17.40;99.90;;;;;;5094025;28;20048;-87
2023/07/19 04:27:46;;;;;;;0.20;0.20;;;17.50;99.90;;;;;;5083373;28;20052;-87
2023/07/19 04:30:42;;;;;;;0.20;0.20;;;17.40;99.90;;;;;;5090320;28;20040;-86
2023/07/19 04:33:24;;;;;;;0.20;0.20;;;17.40;99.90;;;;;;5068897;28;20403;-85
2023/07/19 04:35:50;;;;;;;0.20;0.20;;;17.40;99.90;;;;;;5082744;28;20062;-85
2023/07/19 04:38:16;;;;;;;0.10;0.10;;;17.40;99.90;;;;;;5086710;28;20050;-88
2023/07/19 04:40:42;;;;;;;0.10;0.10;;;17.50;99.90;;;;;;5094752;28;20616;-87
2023/07/19 04:43:08;;;;;;;0.20;0.20;;;17.50;99.90;;;;;;5093811;28;20138;-88
2023/07/19 04:45:34;;;;;;;0.20;0.20;;;17.50;99.90;;;;;;5085884;28;20500;-88
2023/07/19 04:47:59;;;;;;;0.20;0.20;;;17.50;99.90;;;;;;5089111;28;20531;-88
2023/07/19 04:50:25;;;;;;;0.20;0.20;;;17.50;99.90;;;;;;5092420;28;20454;-88
2023/07/19 04:52:53;;;;;;;0.10;0.10;;;17.50;99.90;;;;;;5089906;28;20406;-88
2023/07/19 04:55:20;;;;;;;0.20;0.20;;;17.50;99.90;;;;;;5096579;28;20044;-88
2023/07/19 04:57:52;;;;;;;0.20;0.20;;;17.50;99.90;;;;;;5087693;28;20119;-87
2023/07/19 05:00:20;;;;;;;0.10;0.10;;;17.50;99.90;;;;;;5089052;28;20040;-87
2023/07/19 05:02:46;;;;;;;0.10;0.10;;;17.50;99.90;;;;;;5092127;28;20055;-87
2023/07/19 05:05:13;;;;;;;0.20;0.20;;;17.50;99.90;;;;;;5089819;28;20039;-87
2023/07/19 05:07:42;;;;;;;0.17;0.17;;;17.50;99.90;;;;;;5089560;28;20174;-86
2023/07/19 05:10:08;;;;;;;0.20;0.20;;;17.20;99.90;;;;;;5075578;28;20048;-88
2023/07/19 05:12:34;;;;;;;0.10;0.10;;;17.70;99.90;;;;;;5087543;28;20031;-87
2023/07/19 05:15:05;;;;;;;0.20;0.20;;;17.50;99.90;;;;;;5088975;28;20078;-87
2023/07/19 05:17:31;;;;;;;0.20;0.20;;;17.80;99.90;;;;;;5090573;28;20052;-87
2023/07/19 05:19:57;;;;;;;0.10;0.10;;;17.50;99.90;;;;;;5087962;28;20048;-88
2023/07/19 05:22:41;;;;;;;0.10;0.10;;;17.50;99.90;;;;;;5090902;28;20036;-87
2023/07/19 05:25:07;;;;;;;0.20;0.20;;;17.50;99.90;;;;;;5088086;28;20048;-87
2023/07/19 05:27:33;;;;;;;0.20;0.20;;;17.50;99.90;;;;;;5109344;28;20044;-87
2023/07/19 05:29:59;;;;;;;0.20;0.20;;;17.50;99.90;;;;;;5091041;28;20493;-87
2023/07/19 05:32:25;;;;;;;0.20;0.20;;;17.50;99.90;;;;;;5098332;28;20093;-87
2023/07/19 05:34:51;;;;;;;0.10;0.10;;;17.50;99.90;;;;;;5095566;28;20391;-87
2023/07/19 05:37:16;;;;;;;0.10;0.10;;;17.50;99.90;;;;;;5096059;28;20040;-87
2023/07/19 05:39:42;;;;;;;0.20;0.20;;;17.50;99.90;;;;;;5088799;28;20047;-87
2023/07/19 05:42:08;;;;;;;0.20;0.20;;;17.60;99.90;;;;;;5091268;28;20063;-87
2023/07/19 05:44:34;;;;;;;0.15;0.15;;;17.60;99.90;;;;;;5086126;28;20044;-87
2023/07/19 05:46:59;;;;;;;0.20;0.20;;;17.60;99.90;;;;;;5086839;28;20468;-86
2023/07/19 05:49:25;;;;;;;0.20;0.20;;;17.60;99.90;;;;;;5118661;27;20525;-88
2023/07/19 05:51:51;;;;;;;0.10;0.10;;;17.60;99.90;;;;;;5096335;28;20072;-83
2023/07/19 05:54:19;;;;;;;0.20;0.20;;;17.60;99.90;;;;;;5094607;28;20064;-87
2023/07/19 05:56:47;;;;;;;0.17;0.17;;;17.60;99.90;;;;;;5092518;28;20576;-86
2023/07/19 05:59:13;;;;;;;0.15;0.15;;;17.60;99.90;;;;;;5090796;28;20050;-88
2023/07/19 06:01:39;;;;;;;0.10;0.10;;;17.60;99.90;;;;;;5094740;28;20048;-87
2023/07/19 06:04:05;;;;;;;0.20;0.20;;;17.60;99.90;;;;;;5091253;28;20044;-86
2023/07/19 06:06:33;;;;;;;0.20;0.20;;;17.60;99.90;;;;;;5107608;27;20571;-87
2023/07/19 06:09:05;;;;;;;0.17;0.17;;;17.60;99.90;;;;;;5094170;28;20075;-87
2023/07/19 06:11:37;;;;;;;0.20;0.20;;;17.70;99.90;;;;;;5087971;28;20048;-86
2023/07/19 06:14:04;;;;;;;0.20;0.20;;;17.70;99.90;;;;;;5087601;28;20078;-87
2023/07/19 06:16:30;;;;;;;0.20;0.20;;;17.70;99.90;;;;;;5083289;28;20130;-87
2023/07/19 06:18:55;;;;;;;0.20;0.20;;;17.70;99.90;;;;;;5089553;28;20111;-86
2023/07/19 06:21:23;;;;;;;0.13;0.13;;;17.70;99.90;;;;;;5088785;28;20028;-82
2023/07/19 06:23:49;;;;;;;0.20;0.20;;;17.70;99.90;;;;;;5083482;28;20048;-83
2023/07/19 06:26:15;;;;;;;0.13;0.13;;;17.60;99.90;;;;;;5092208;28;20567;-81
2023/07/19 06:28:40;;;;;;;0.20;0.20;;;17.60;99.90;;;;;;5089266;28;20131;-81
2023/07/19 06:31:06;;;;;;;0.10;0.10;;;17.60;99.90;;;;;;5090480;28;20158;-82
2023/07/19 06:33:32;;;;;;;0.20;0.20;;;17.60;99.90;;;;;;5121563;27;20109;-82
2023/07/19 06:35:58;;;;;;;0.20;0.20;;;17.50;99.90;;;;;;5091318;28;20052;-82
2023/07/19 06:38:25;;;;;;;0.13;0.13;;;17.50;99.90;;;;;;5094105;28;20461;-82
2023/07/19 06:40:51;;;;;;;0.20;0.20;;;17.50;99.90;;;;;;5093792;28;20052;-81
2023/07/19 06:43:17;;;;;;;0.20;0.20;;;17.50;99.90;;;;;;5090539;28;20696;-83
2023/07/19 06:45:45;;;;;;;0.20;0.20;;;17.50;99.90;;;;;;5090605;28;20566;-82
2023/07/19 06:48:11;;;;;;;0.20;0.20;;;18.30;99.90;;;;;;5087196;28;20509;-82
2023/07/19 06:50:37;;;;;;;0.20;0.20;;;17.50;99.90;;;;;;5088875;28;20138;-82
2023/07/19 06:53:03;;;;;;;0.20;0.20;;;17.50;99.90;;;;;;5087404;28;20040;-81
2023/07/19 06:55:28;;;;;;;0.10;0.10;;;17.50;99.90;;;;;;5087231;28;20641;-81
2023/07/19 06:57:54;;;;;;;0.20;0.20;;;17.50;99.90;;;;;;5092822;28;20040;-81
2023/07/19 07:00:20;;;;;;;0.20;0.20;;;17.60;99.90;;;;;;5070585;28;20044;-81
2023/07/19 07:02:46;;;;;;;0.20;0.20;;;17.60;99.90;;;;;;5072552;28;20056;-81
2023/07/19 07:05:12;;;;;;;0.20;0.20;;;17.60;99.90;;;;;;5076955;28;20040;-81
2023/07/19 07:07:39;;;;;;;0.20;0.20;;;17.60;99.90;;;;;;5092325;28;20069;-81
2023/07/19 07:10:08;;;;;;;0.20;0.20;;;17.70;99.90;;;;;;5091123;28;20059;-81
2023/07/19 07:12:35;;;;;;;0.10;0.10;;;17.70;99.90;;;;;;5094040;28;20390;-79
2023/07/19 07:15:02;;;;;;;0.10;0.10;;;17.70;99.90;;;;;;5086727;28;20056;-81
2023/07/19 07:17:28;;;;;;;0.20;0.20;;;17.80;99.90;;;;;;5075784;28;20056;-81
2023/07/19 07:19:54;;;;;;;0.10;0.10;;;17.90;99.90;;;;;;5079358;28;20089;-81
2023/07/19 07:22:20;;;;;;;0.20;0.20;;;17.90;99.90;;;;;;5092204;28;20047;-81
2023/07/19 07:24:46;;;;;;;0.10;0.10;;;18.00;99.90;;;;;;5088416;28;20429;-81
2023/07/19 07:27:12;;;;;;;0.10;0.10;;;18.00;99.90;;;;;;5087087;28;20090;-81
2023/07/19 07:29:41;;;;;;;0.20;0.20;;;18.10;99.90;;;;;;5115725;27;20055;-82
2023/07/19 07:32:08;;;;;;;0.15;0.15;;;18.10;99.90;;;;;;5085591;28;20065;-80
2023/07/19 07:34:34;;;;;;;0.20;0.20;;;18.20;99.90;;;;;;5087375;28;20119;-81
2023/07/19 07:36:59;;;;;;;0.20;0.20;;;18.20;99.90;;;;;;5092665;28;20134;-81
2023/07/19 07:39:25;;;;;;;0.20;0.20;;;18.20;99.90;;;;;;5089465;28;20062;-81
2023/07/19 07:41:51;;;;;;;0.10;0.10;;;18.20;99.90;;;;;;5092440;28;20044;-81
2023/07/19 07:44:16;;;;;;;0.20;0.20;;;18.30;99.90;;;;;;5082031;28;20591;-81
2023/07/19 07:46:42;;;;;;;0.20;0.20;;;18.30;99.90;;;;;;5082107;28;20066;-80
2023/07/19 07:49:08;;;;;;;0.20;0.20;;;18.40;99.90;;;;;;5086458;28;20036;-80
2023/07/19 07:51:35;;;;;;;0.10;0.10;;;18.40;99.90;;;;;;5081325;28;20085;-81
2023/07/19 07:54:00;;;;;;;0.10;0.10;;;18.50;99.90;;;;;;5084601;28;20040;-80
2023/07/19 07:56:26;;;;;;;0.10;0.10;;;18.60;99.90;;;;;;5085326;28;20059;-81
2023/07/19 07:58:52;;;;;;;0.17;0.17;;;18.60;99.90;;;;;;5086498;28;20047;-80
2023/07/19 08:01:18;;;;;;;0.20;0.20;;;18.60;99.90;;;;;;5086182;28;20403;-80
2023/07/19 08:03:43;;;;;;;0.10;0.10;;;18.70;99.90;;;;;;5109761;27;20044;-80
2023/07/19 08:06:09;;;;;;;0.20;0.20;;;18.70;99.90;;;;;;5088893;28;20043;-79
2023/07/19 08:08:35;;;;;;;0.20;0.20;;;18.80;99.90;;;;;;5086986;28;20035;-80
2023/07/19 08:11:05;;;;;;;0.20;0.20;;;18.70;99.90;;;;;;5089027;28;20544;-80
2023/07/19 08:13:31;;;;;;;0.20;0.20;;;18.80;99.90;;;;;;5088192;28;20550;-80
2023/07/19 08:15:56;;;;;;;0.20;0.20;;;18.80;99.90;;;;;;5087347;28;20123;-80
2023/07/19 08:18:22;;;;;;;0.10;0.10;;;18.80;99.90;;;;;;5084312;28;20184;-80
2023/07/19 08:20:48;;;;;;;0.20;0.20;;;18.80;99.90;;;;;;5090342;28;20479;-81
2023/07/19 08:23:14;;;;;;;0.20;0.20;;;18.90;99.90;;;;;;5086550;28;20089;-80
2023/07/19 08:25:41;;;;;;;0.20;0.20;;;18.90;99.90;;;;;;5090613;28;20048;-80
2023/07/19 08:28:07;;;;;;;0.20;0.20;;;18.90;99.90;;;;;;5087941;28;20472;-84
2023/07/19 08:30:33;;;;;;;0.20;0.20;;;18.90;99.90;;;;;;5085463;28;20108;-80
2023/07/19 08:32:59;;;;;;;0.20;0.20;;;19.00;99.90;;;;;;5084359;28;20091;-80
2023/07/19 08:35:24;;;;;;;0.20;0.20;;;19.10;99.90;;;;;;5076845;28;20405;-81
2023/07/19 08:37:50;;;;;;;0.20;0.20;;;19.10;99.90;;;;;;5087741;28;20192;-81
2023/07/19 08:40:16;;;;;;;0.10;0.10;;;19.20;99.90;;;;;;5085033;28;20453;-81
2023/07/19 08:42:43;;;;;;;0.20;0.20;;;19.20;99.90;;;;;;5082473;28;20502;-80
2023/07/19 08:45:11;;;;;;;0.20;0.20;;;19.30;99.90;;;;;;5078165;28;20505;-80
2023/07/19 08:47:40;;;;;;;0.20;0.20;;;19.40;99.90;;;;;;5088660;28;20075;-81
2023/07/19 08:50:07;;;;;;;0.20;0.20;;;19.40;99.90;;;;;;5075098;28;20037;-81
2023/07/19 08:52:33;;;;;;;0.20;0.20;;;19.50;99.90;;;;;;5076246;28;20044;-81
2023/07/19 08:55:03;;;;;;;0.15;0.15;;;19.70;99.90;;;;;;5089258;28;20047;-80
2023/07/19 08:57:28;;;;;;;0.20;0.20;;;19.80;99.90;;;;;;5084837;28;20542;-81
2023/07/19 08:59:54;;;;;;;0.10;0.10;;;19.80;99.90;;;;;;5083000;28;20040;-78
2023/07/19 09:02:20;;;;;;;0.10;0.10;;;19.80;99.90;;;;;;5114719;27;20178;-81
2023/07/19 09:05:16;;;;;;;0.20;0.20;;;19.80;99.90;;;;;;5085163;28;22018;-81
2023/07/19 09:07:45;;;;;;;0.20;0.20;;;19.70;99.90;;;;;;5069835;28;20060;-81
2023/07/19 09:10:11;;;;;;;0.10;0.10;;;19.60;99.90;;;;;;5074266;28;20399;-80
2023/07/19 09:12:40;;;;;;;0.20;0.20;;;19.60;99.90;;;;;;5084387;28;20040;-80
2023/07/19 09:15:11;;;;;;;0.20;0.20;;;19.50;99.90;;;;;;5084324;28;20482;-81
2023/07/19 09:17:46;;;;;;;0.20;0.20;;;19.50;99.90;;;;;;5087383;28;20044;-81
2023/07/19 09:20:13;;;;;;;0.20;0.20;;;19.50;99.90;;;;;;5083742;28;20047;-81
2023/07/19 09:22:39;;;;;;;0.20;0.20;;;19.40;99.90;;;;;;5088263;28;20040;-80
2023/07/19 09:25:07;;;;;;;0.20;0.20;;;19.40;99.90;;;;;;5086199;28;20436;-80
2023/07/19 09:27:33;;;;;;;0.20;0.20;;;19.40;99.90;;;;;;5083029;28;20047;-80
2023/07/19 09:30:00;;;;;;;0.17;0.17;;;19.40;99.90;;;;;;5087208;28;20051;-81
2023/07/19 09:32:26;;;;;;;0.20;0.20;;;19.40;99.90;;;;;;5084658;28;20040;-79
2023/07/19 09:34:56;;;;;;;0.13;0.13;;;19.40;99.90;;;;;;5084870;28;20040;-81
2023/07/19 09:37:23;;;;;;;0.20;0.20;;;19.40;99.90;;;;;;5097359;28;20040;-81
2023/07/19 09:39:49;;;;;;;0.20;0.20;;;19.40;99.90;;;;;;5087062;28;20035;-82
2023/07/19 09:42:15;;;;;;;0.20;0.20;;;19.40;99.90;;;;;;5086652;28;20131;-82
2023/07/19 09:44:41;;;;;;;0.20;0.20;;;19.40;99.90;;;;;;5089254;28;20047;-83
2023/07/19 09:47:09;;;;;;;0.20;0.20;;;19.30;99.90;;;;;;5087022;28;20032;-82
2023/07/19 09:49:38;;;;;;;0.10;0.10;;;19.30;99.90;;;;;;5088383;28;20069;-82
2023/07/19 09:52:05;;;;;;;0.20;0.20;;;19.30;99.90;;;;;;5085861;28;20036;-81
2023/07/19 09:54:32;;;;;;;0.10;0.10;;;19.30;99.90;;;;;;5085919;28;20079;-81
2023/07/19 09:56:58;;;;;;;0.10;0.10;;;19.30;99.90;;;;;;5089680;28;20064;-81
2023/07/19 09:59:44;;;;;;;0.20;0.20;;;19.30;99.90;;;;;;5086240;28;20043;-82
2023/07/19 10:02:10;;;;;;;0.20;0.20;;;19.30;99.90;;;;;;5087094;28;20051;-82
2023/07/19 10:04:39;;;;;;;0.20;0.20;;;19.30;99.90;;;;;;5089528;28;20093;-81
2023/07/19 10:07:07;;;;;;;0.20;0.20;;;19.30;99.90;;;;;;5087796;28;20067;-81
2023/07/19 10:09:37;;;;;;;0.20;0.20;;;19.30;99.90;;;;;;5087244;28;20048;-81
2023/07/19 10:12:24;;;;;;;0.10;0.10;;;19.40;99.90;;;;;;5088696;28;20039;-83
2023/07/19 10:15:03;;;;;;;0.20;0.20;;;19.50;99.90;;;;;;5080056;28;20085;-81
2023/07/19 10:17:39;;;;;;;0.20;0.20;;;19.60;99.90;;;;;;5088257;28;20048;-83
2023/07/19 10:20:09;;;;;;;0.20;0.20;;;19.70;99.90;;;;;;5092043;28;20111;-81
2023/07/19 10:22:50;;;;;;;0.30;0.30;;;19.70;99.90;;;;;;5090775;28;20054;-81
2023/07/19 10:25:25;;;;;;;0.20;0.20;;;19.70;99.90;;;;;;5091202;28;20048;-82
2023/07/19 10:27:56;;;;;;;0.20;0.20;;;19.70;99.90;;;;;;5084206;28;20048;-81
2023/07/19 10:30:42;;;;;;;0.10;0.10;;;19.70;99.90;;;;;;5091850;28;20040;-82
2023/07/19 10:33:08;;;;;;;0.20;0.20;;;19.80;99.90;;;;;;5089070;28;20055;-81
2023/07/19 10:35:34;;;;;;;0.20;0.20;;;19.90;99.90;;;;;;5082852;28;20040;-79
2023/07/19 10:38:00;;;;;;;0.20;0.20;;;20.00;99.90;;;;;;5088410;28;20032;-79
2023/07/19 10:40:25;;;;;;;0.20;0.20;;;20.10;99.90;;;;;;5088324;28;20052;-79
2023/07/19 10:42:51;;;;;;;0.20;0.20;;;20.00;99.90;;;;;;5086443;28;20036;-81
2023/07/19 10:45:17;;;;;;;0.10;0.10;;;20.00;99.90;;;;;;5091304;28;20063;-81
2023/07/19 10:47:43;;;;;;;0.20;0.20;;;20.00;99.90;;;;;;5088034;28;20032;-81
2023/07/19 10:50:09;;;;;;;0.15;0.15;;;20.00;99.90;;;;;;5088571;28;20044;-80
2023/07/19 10:52:34;;;;;;;0.20;0.20;;;20.00;99.90;;;;;;5083620;28;20044;-80
2023/07/19 10:55:00;;;;;;;0.20;0.20;;;20.10;99.90;;;;;;5084962;28;20047;-80
2023/07/19 10:57:27;;;;;;;0.20;0.20;;;20.20;99.90;;;;;;5081795;28;20438;-80
2023/07/19 10:59:53;;;;;;;0.10;0.10;;;20.30;99.90;;;;;;5076550;28;20103;-80
2023/07/19 11:02:21;;;;;;;0.10;0.10;;;20.40;99.90;;;;;;5076399;28;20079;-81
2023/07/19 11:04:46;;;;;;;0.20;0.20;;;20.40;99.90;;;;;;5085046;28;20079;-80
2023/07/19 11:07:12;;;;;;;0.20;0.20;;;20.50;99.90;;;;;;5085795;28;20040;-80
2023/07/19 11:09:59;;;;;;;0.20;0.20;;;20.50;99.90;;;;;;5082484;28;20052;-80
2023/07/19 11:12:25;;;;;;;0.20;0.20;;;20.60;99.90;;;;;;5077996;28;20044;-80
2023/07/19 11:14:57;;;;;;;0.20;0.20;;;20.60;99.90;;;;;;5081737;28;20302;-79
2023/07/19 11:17:30;;;;;;;0.20;0.20;;;20.70;99.90;;;;;;5076449;28;20457;-79
2023/07/19 11:20:00;;;;;;;0.20;0.20;;;20.80;99.90;;;;;;5122393;27;20040;-80
2023/07/19 11:22:27;;;;;;;0.20;0.20;;;20.70;99.90;;;;;;5085140;28;20061;-80
2023/07/19 11:24:54;;;;;;;0.20;0.20;;;20.80;99.90;;;;;;5119856;27;20267;-79
2023/07/19 11:27:36;;;;;;;0.20;0.20;;;20.80;99.90;;;;;;5118696;27;20435;-79
2023/07/19 11:30:03;;;;;;;0.20;0.20;;;20.80;99.90;;;;;;5087200;28;20029;-80
2023/07/19 11:32:29;;;;;;;0.20;0.20;;;20.80;99.90;;;;;;5081123;28;20417;-80
2023/07/19 11:34:57;;;;;;;0.20;0.20;;;20.90;99.90;;;;;;5086922;28;20044;-80
2023/07/19 11:37:33;;;;;;;0.20;0.20;;;20.90;99.90;;;;;;5072401;28;20135;-80
2023/07/19 11:40:05;;;;;;;0.20;0.20;;;21.00;99.90;;;;;;5079854;28;20255;-81
2023/07/19 11:42:41;;;;;;;0.20;0.20;;;21.00;99.90;;;;;;5077090;28;20052;-80
2023/07/19 11:45:09;;;;;;;0.15;0.15;;;21.20;99.90;;;;;;5109389;27;20382;-80
2023/07/19 11:47:34;;;;;;;0.20;0.20;;;21.20;99.90;;;;;;5113059;27;20122;-79
2023/07/19 11:50:00;;;;;;;0.20;0.20;;;21.30;99.90;;;;;;5077171;28;20474;-79
2023/07/19 11:52:26;;;;;;;0.20;0.20;;;21.30;99.90;;;;;;5113718;27;20040;-79
2023/07/19 11:54:52;;;;;;;0.20;0.20;;;21.50;99.90;;;;;;5078224;28;20071;-81
2023/07/19 11:57:18;;;;;;;0.20;0.20;;;21.50;99.90;;;;;;5109245;27;20511;-80
2023/07/19 11:59:44;;;;;;;0.20;0.20;;;21.50;99.90;;;;;;5079916;28;20157;-80
2023/07/19 12:02:10;;;;;;;0.20;0.20;;;21.60;99.90;;;;;;5082051;28;20391;-81
2023/07/19 12:04:35;;;;;;;0.20;0.20;;;21.70;99.90;;;;;;5079283;28;20082;-80
2023/07/19 12:07:01;;;;;;;0.20;0.20;;;21.80;99.90;;;;;;5079916;28;20456;-80
2023/07/19 12:09:26;;;;;;;0.20;0.20;;;21.70;99.90;;;;;;5109796;27;20181;-80
2023/07/19 12:11:52;;;;;;;0.20;0.20;;;21.80;99.90;;;;;;5085538;28;20036;-79
2023/07/19 12:14:18;;;;;;;0.20;0.20;;;21.90;99.90;;;;;;5077606;28;20101;-80
2023/07/19 12:16:44;;;;;;;0.20;0.20;;;21.90;99.90;;;;;;5077637;28;20077;-78
2023/07/19 12:19:11;;;;;;;0.20;0.20;;;21.90;99.90;;;;;;5076225;28;20048;-79
2023/07/19 12:21:38;;;;;;;0.20;0.20;;;21.80;99.90;;;;;;5072912;28;20506;-78
2023/07/19 12:24:04;;;;;;;0.20;0.20;;;21.90;99.90;;;;;;5077032;28;20036;-78
2023/07/19 12:26:30;;;;;;;0.20;0.20;;;21.90;99.90;;;;;;5085253;28;20083;-80
2023/07/19 12:28:56;;;;;;;0.20;0.20;;;21.90;99.90;;;;;;5078335;28;20044;-79
2023/07/19 12:31:21;;;;;;;0.20;0.20;;;21.90;99.90;;;;;;5069988;28;20086;-79
2023/07/19 12:33:49;;;;;;;0.20;0.20;;;21.90;99.90;;;;;;5082194;28;20499;-80
2023/07/19 12:36:14;;;;;;;0.20;0.20;;;21.80;99.90;;;;;;5071800;28;20182;-80
2023/07/19 12:38:40;;;;;;;0.20;0.20;;;21.70;99.60;;;;;;5069006;28;20123;-79
2023/07/19 12:41:06;;;;;;;0.20;0.20;;;21.70;99.80;;;;;;5074359;28;20413;-80
2023/07/19 12:43:31;;;;;;;0.20;0.20;;;21.70;99.90;;;;;;5118991;27;20398;-79
2023/07/19 12:45:58;;;;;;;0.20;0.20;;;21.70;99.90;;;;;;5072108;28;20445;-79
2023/07/19 12:48:23;;;;;;;0.20;0.20;;;21.80;99.90;;;;;;5068479;28;20048;-80